Henrique Cardoso

Recruteur - Rio Ave
6 Août 2028
Dimanche
Processus

Personnalité

Adaptabilité (19) Ambition (9) Controverse (11) Loyauté (2) Pression (11) Professionnalisme (7) Sportivité (1) Tempérament (16)

Profil

Style d'entraînement Démocratique
Diplôme Continental Pro
Détermination 9
Gestion des joueurs 11
Motivation 9
Discipline 12
Satisfaction professionnelle
38%
Fatigue
0%
Rôle Recruteur
Salaire 23.9K p/s
Contrat 14.03.2029

Performance

Comportement Bon
Efficacité de l'entraînement
17%
Développement des joueurs
35%
Prévention des blessures
20%
Mise en place tactique
55%

Événements récents

A participé à une réunion de recrutement maintenant
A participé à une réunion de recrutement maintenant
A participé à une réunion de recrutement maintenant
A recommandé une cible de transfert maintenant
A recommandé une cible de transfert maintenant
A recommandé une cible de transfert 7j
A recommandé une cible de transfert 7j
A recommandé une cible de transfert 7j

Suivi en cours

187
Joueur Club Statut Capacité Confiance Observé Dernière observation Dernier vote
Sébastien Cibois Portimonense Rapport prêt 118 / 115 62% 1 10.07.2028 -
Dânio Djassi Portimonense Négociation 123 / 130 62% 1 01.06.2028 -
Nicolò Moranduzzo Renate Actif 95 / 100 40% 1 31.05.2028 -
Riquelme Thompson-Jones Accrington Stanley Actif 105 / 118 40% 5 29.05.2028 -
Honest Ahanor Atalanta Actif 142 / 138 40% 3 27.05.2028 -
Andrija Bulatović Chamois Niortais Actif 127 / 129 40% 2 26.05.2028 -
Lucas Høgsberg RC Strasbourg Actif 136 / 146 40% 2 25.05.2028 -
Andrea Cogoni Cosenza Actif 114 / 115 40% 1 25.05.2028 -
Celías Ingenthron Platense Actif 116 / 126 40% 1 24.05.2028 -
Thijs Kraaijeveld USM Alger Actif 138 / 125 40% 2 23.05.2028 -
Giovanni Leoni Lincoln City Actif 147 / 144 40% 2 22.05.2028 -
Amine Boukamir Charleroi Actif 111 / 112 40% 4 21.05.2028 -
Bence Szakos Aris Actif 100 / 101 40% 1 21.05.2028 -
Tyler Fletcher Rotherham United Actif 111 / 115 40% 2 18.05.2028 -
Itumeleng Jali Spezia Actif 110 / 124 40% 1 17.05.2028 -
Kamaldeen Atiemo Wa All Stars Actif 95 / 103 40% 3 16.05.2028 -
Lamine Bèye Portimonense Actif 110 / 117 40% 1 16.05.2028 -
Abubakar Adams Aduana Stars Actif 83 / 87 40% 4 13.05.2028 -
Thato Sibiya Orlando Pirates Actif 117 / 119 40% 1 13.05.2028 -
Kelian Le Pironnec Mirandés Actif 89 / 104 40% 1 10.05.2028 -
Miguel Figueiredo Benfica Actif 109 / 123 40% 2 06.05.2028 -
Olivier Leroux Mouscron Actif 105 / 106 40% 3 02.05.2028 -
Josh Nichols Oldham Athletic Actif 123 / 129 40% 2 02.05.2028 -
Denys Smetana Rukh Actif 99 / 99 40% 1 29.04.2028 -
Augusto Bando Ascoli Actif 111 / 118 40% 1 28.04.2028 -
Simone Suppa Virtus Verona Actif 78 / 93 40% 2 24.04.2028 -
Ayden Heaven Portsmouth Actif 148 / 148 40% 1 21.04.2028 -
Christos Mouzakitis Hull City Actif 145 / 144 40% 3 19.04.2028 -
Kirill Kistenev Botev Vratsa Actif 79 / 99 40% 1 17.04.2028 -
Josh Acheampong Everton Actif 150 / 144 40% 1 15.04.2028 -
Kubrat Onasci Septemvri Actif 111 / 103 40% 1 10.04.2028 -
Daniel Banjaqui Benfica Actif 124 / 124 67% 2 09.04.2028 Approuver
Federico Matarán Giana Erminio Actif 106 / 113 40% 1 08.04.2028 -
Bernardo Lima Porto Actif 114 / 118 40% 2 07.04.2028 -
Martim Cunha Porto Actif 106 / 117 40% 1 03.04.2028 -
Mao Hosoya Santos Actif 134 / 135 90% 1 01.01.2028 Approuver
Toni Fruk Talleres Actif 132 / 133 89% 1 01.01.2028 Approuver
Gideon Manaseh Ikorodu City Actif 91 / 106 40% 2 31.12.2027 -
Matias Siltanen Malmo FF Actif 132 / 128 40% 2 10.12.2027 -
Nicolas Sport Recife Actif 97 / 114 40% 2 10.12.2027 -
Onyeuche Ujunwa Ikorodu City Actif 86 / 98 40% 1 09.12.2027 -
Trey Nyoni Rotherham United Actif 137 / 140 40% 1 08.12.2027 -
Fabiano Epicentr Actif 113 / 107 40% 1 03.12.2027 -
Gianluca Prestianni Benfica Actif 136 / 137 40% 3 02.12.2027 -
Nicolás Barros Schelotto Gimnasia La Plata Actif 127 / 130 40% 1 02.12.2027 -
Rafael Moreno Atletico Venezuela Actif 107 / 110 40% 3 01.12.2027 -
Siyabonga Mabena Bidvest Wits Actif 120 / 119 40% 1 01.12.2027 -
Christ Wawa Gefle Actif 110 / 105 40% 1 30.11.2027 -
David Eke Enyimba Actif 83 / 91 40% 1 30.11.2027 -
Matías Arias Vélez Actif 108 / 122 40% 2 29.11.2027 -
Ruben Ramos LA Galaxy Actif 106 / 107 40% 3 29.11.2027 -
Emmanuel Ndubueze Shooting Stars Actif 90 / 95 40% 2 26.11.2027 -
Chimobi Igwilo Rangers International Actif 99 / 101 40% 1 26.11.2027 -
Dylan Cabral Arsenal Actif 94 / 108 40% 2 23.11.2027 -
Alex Amaefula Kun Khalifat Actif 82 / 78 40% 1 23.11.2027 -
Jeremías Merlo Gimnasia La Plata Actif 120 / 127 40% 2 19.11.2027 -
Idris Ajiya Nasarawa United Actif 93 / 87 40% 2 17.11.2027 -
Francisco Triver River Plate Actif 93 / 100 40% 2 16.11.2027 -
Alex Verón Vélez Actif 110 / 122 40% 1 16.11.2027 -
Nupe Godstime Bayelsa United Actif 98 / 85 40% 2 15.11.2027 -
Valentino Acuña Newell's Old Boys Actif 105 / 116 40% 1 05.11.2027 -
Bautista Carboni Defensores Unidos Actif 103 / 107 40% 1 03.11.2027 -
Beto 12 de Octubre Actif 93 / 89 40% 1 19.07.2027 -
Sindre Walle Egeli Udinese Actif 125 / 137 40% 2 06.07.2027 -
Víctor Guzmán Sporting CP Actif 96 / 100 40% 1 06.07.2027 -
Miguel Campos Oliveirense Actif 110 / 104 58% 1 07.06.2027 -
Pedro de la Vega Columbus Crew Actif 133 / 134 66% 1 01.06.2027 Approuver
Caleb Yirenkyi Coventry City Actif 140 / 141 40% 2 31.05.2027 -
Godwin Oham Warri Wolves Actif 81 / 87 40% 1 31.05.2027 -
Lewis Gibson Preston Actif 121 / 132 40% 1 30.05.2027 -
Junior Tchamadeu Stoke City Actif 118 / 124 40% 1 28.05.2027 -
Will Fish Cardiff City Actif 119 / 116 40% 1 27.05.2027 -
Olívio Tomé Benfica Actif 119 / 117 40% 1 27.05.2027 -
Brooke Norton-Cuffy Hull City Actif 132 / 144 40% 3 25.05.2027 -
Adam Randell Bristol City Actif 131 / 125 40% 1 25.05.2027 -
Max Johnston Derby County Actif 119 / 124 40% 3 24.05.2027 -
Mats Wieffer Brighton Actif 142 / 148 40% 2 24.05.2027 -
Ousmane Diomande Nottingham Forest Actif 156 / 149 40% 1 22.05.2027 -
Habib Diarra Sunderland Actif 145 / 144 40% 1 22.05.2027 -
Bosun Lawal Stoke City Actif 122 / 127 40% 2 21.05.2027 -
Alex Scott Bournemouth Actif 155 / 148 40% 4 20.05.2027 -
Jacques Ekomié Wrexham Actif 130 / 124 40% 2 19.05.2027 -
Ronnie Edwards Queens Park Rangers Actif 136 / 129 40% 1 19.05.2027 -
Jan Bürger Northampton Town Actif 102 / 120 40% 1 19.05.2027 -
Jonathan Varane Queens Park Rangers Actif 126 / 127 40% 1 17.05.2027 -
Oliver Skipp Leicester City Actif 141 / 136 40% 1 17.05.2027 -
Alfie Gilchrist West Bromwich Albion Actif 123 / 133 40% 2 16.05.2027 -
Alfie Doughty Millwall Actif 127 / 123 40% 4 16.05.2027 -
Nathan Collins Brentford Actif 154 / 141 40% 3 15.05.2027 -
Alfie Devine Preston Actif 113 / 124 40% 1 15.05.2027 -
Aidan Morris Middlesbrough Actif 137 / 132 40% 2 14.05.2027 -
Jack Currie Oxford United Actif 118 / 120 40% 2 13.05.2027 -
Othmane Maamma Watford Actif 134 / 126 40% 1 13.05.2027 -
Mohamadou Kanté Crawley Town Actif 118 / 116 40% 2 12.05.2027 -
Monty Batlhabane Polokwane City Actif 97 / 94 40% 1 12.05.2027 -
João Abreu Porto Actif 102 / 102 40% 1 11.05.2027 -
Kirill Glebov CSKA Moscow Actif 123 / 128 40% 1 11.05.2027 -
Ethan Pye Stockport County Actif 125 / 123 40% 1 09.05.2027 -
Mateus Mané Burnley Actif 126 / 147 40% 2 07.05.2027 -
Stevan Manuel Benfica Actif 90 / 114 40% 1 07.05.2027 -
Lander Astiazarán Real Sociedad Actif 101 / 116 40% 1 06.05.2027 -
Pelle Mattsson Norwich City Actif 133 / 129 40% 3 05.05.2027 -
Nestory Irankunda Watford Actif 115 / 126 40% 1 03.05.2027 -
Bazoumana Touré Newcastle United Actif 141 / 137 40% 1 03.05.2027 -
Raoul Bellanova Atalanta Actif 156 / 142 40% 1 01.05.2027 -
Tariq Lamptey Queens Park Rangers Actif 142 / 131 40% 1 01.05.2027 -
Rafael Camacho Sporting CP Actif 103 / 104 40% 1 30.04.2027 -
Lovro Zvonarek Estrela da Amadora Actif 121 / 127 40% 1 29.04.2027 -
Welington Southampton Actif 138 / 124 40% 2 28.04.2027 -
Brian De Keersmaecker Oxford United Actif 114 / 120 40% 1 28.04.2027 -
Toby Collyer West Bromwich Albion Actif 125 / 130 40% 2 27.04.2027 -
Adam Wharton Crystal Palace Actif 142 / 152 40% 1 25.04.2027 -
Jacob Greaves Ipswich Town Actif 138 / 134 40% 2 24.04.2027 -
Taichi Fukui Arouca Actif 119 / 131 40% 1 24.04.2027 -
João Mendes Vitoria Guimaraes Actif 124 / 121 40% 1 20.04.2027 -
André Wolverhampton Actif 147 / 138 40% 2 19.04.2027 -
Lucas Da Cunha Como Actif 144 / 150 40% 1 19.04.2027 -
Iseppe Nacional Actif 98 / 115 40% 1 19.04.2027 -
Ethan Williams Peterborough United Actif 107 / 123 40% 1 19.04.2027 -
David Sousa Casa Pia Actif 126 / 120 40% 1 17.04.2027 -
Víctor Gómez Braga Actif 133 / 142 40% 4 16.04.2027 Observer
Leandro Martins Benfica Actif 90 / 92 40% 1 16.04.2027 -
Nana Nuhu WAFA Actif 98 / 102 40% 1 16.04.2027 -
Aaron Hickey Brentford Actif 143 / 139 40% 1 14.04.2027 -
Vitinho Botafogo Actif 134 / 138 40% 1 09.04.2027 -
Bright Arrey-Mbi Braga Actif 138 / 134 40% 3 08.04.2027 -
Markus Jensen Nacional Actif 118 / 110 40% 1 05.04.2027 -
Dinis Pinto Moreirense Actif 123 / 130 40% 1 02.04.2027 -
Lee Buchanan Sheffield Wednesday Actif 119 / 114 40% 1 01.04.2027 -
Max Bird Birmingham Actif 130 / 127 40% 1 29.03.2027 -
Hugo Pérez Torreense Actif 115 / 122 40% 2 28.03.2027 -
Juan María Alcedo Torreense Actif 130 / 124 40% 1 24.03.2027 -
Lewis Ferguson Bologna Actif 143 / 137 40% 1 22.03.2027 -
Ryan Sessegnon Fulham Actif 141 / 146 40% 1 22.03.2027 -
Luke McNally Bristol City Actif 138 / 134 40% 2 19.03.2027 -
Shea Charles Southampton Actif 128 / 143 40% 1 19.03.2027 -
Rodrigo Pinheiro Famalicao Actif 133 / 128 40% 1 18.03.2027 -
Harry Clarke Preston Actif 134 / 131 40% 1 17.03.2027 -
Facundo Cáseres Gil Vicente Actif 112 / 125 40% 1 31.12.2026 -
Gabriel Gudmundsson Leeds United Actif 139 / 146 40% 1 31.12.2026 -
Vinícius Lopes Santa Clara Actif 130 / 127 40% 1 27.12.2026 -
Manu Pozo Torreense Actif 130 / 127 40% 2 23.12.2026 -
Rafik Guitane Estoril Praia Actif 139 / 136 40% 2 23.12.2026 -
Nico O'Reilly Manchester City Actif 156 / 154 40% 3 21.12.2026 -
Giacomo Raspadori Atalanta Actif 149 / 141 40% 1 20.12.2026 -
Tiago Freitas Benfica Actif 118 / 118 40% 1 18.12.2026 -
Elliot Anderson Manchester City Actif 147 / 148 40% 1 16.12.2026 -
Roberto Fernández Braga Actif 152 / 148 40% 1 16.12.2026 Plus d'infos
Yeremy Pino Crystal Palace Actif 160 / 147 40% 1 14.12.2026 -
Simo Maritimo Actif 112 / 109 40% 1 11.12.2026 -
Yassine Khalifi Charleroi Actif 109 / 102 40% 1 11.12.2026 -
Petar Stanić Ludogorets Actif 126 / 145 40% 1 09.12.2026 -
Ramiro Sordo Santos Laguna Actif 121 / 117 40% 1 09.12.2026 -
Lorougnon Gohi Académico de Viseu Actif 103 / 116 40% 1 04.12.2026 -
Tyrese Campbell Sheffield United Actif 132 / 132 40% 1 01.12.2026 -
Amine Adli Bournemouth Actif 151 / 148 40% 1 01.12.2026 -
Tyrhys Dolan Espanyol Actif 128 / 141 40% 1 24.11.2026 -
Scott Twine Bristol City Actif 116 / 117 40% 1 23.11.2026 -
Simphiwe Selepe Orlando Pirates Actif 96 / 122 40% 1 17.11.2026 -
Noni Madueke Arsenal Actif 162 / 156 40% 1 16.11.2026 -
Reuell Walters Luton Town Actif 119 / 113 40% 1 13.11.2026 -
Soma Anzai FC Tokyo Actif 131 / 129 40% 1 11.11.2026 -
Lee Hyun-Ju Arouca Actif 125 / 130 40% 1 09.11.2026 -
Pedro Bravo FC Midtjylland Actif 106 / 125 40% 1 07.11.2026 -
Yanis Begraoui Estoril Praia Actif 140 / 138 40% 1 05.11.2026 -
Marcelo Allende Mamelodi Sundowns Actif 137 / 129 40% 1 05.11.2026 -
Joe Gelhardt Hull City Actif 126 / 127 40% 1 03.11.2026 -
Enzo Le Fée Sunderland Actif 136 / 143 40% 1 03.11.2026 -
Sorriso Famalicao Actif 127 / 128 40% 1 01.11.2026 -
Gustavo Silva Vitoria Guimaraes Actif 113 / 131 40% 1 01.11.2026 -
Mason Mount Manchester United Actif 161 / 158 40% 1 25.10.2026 -
Tadeo Allende Inter Miami CF Actif 122 / 131 40% 1 24.10.2026 -
Joaquín Gho Argentinos Juniors Actif 127 / 125 40% 1 23.10.2026 -
Pau Víctor Braga Actif 128 / 144 40% 2 22.10.2026 -
Carlos Álvarez Club America Actif 135 / 139 40% 1 22.10.2026 -
Mikkel Damsgaard Brentford Actif 140 / 148 40% 1 21.10.2026 -
Telasco Segovia Inter Miami CF Actif 138 / 132 40% 1 21.10.2026 -
Marcel Ruiz Crystal Palace Actif 136 / 145 40% 1 20.10.2026 -
Santi García Gil Vicente Actif 121 / 133 40% 1 19.10.2026 -
Alex Luna Instituto Actif 121 / 134 40% 1 11.10.2026 -
David Da Costa Portland Timbers Actif 137 / 136 40% 1 08.10.2026 -
Jordan van der Gaag Leiria Actif 102 / 115 40% 1 08.10.2026 -
Valentín Aguiñagalde Temperley Actif 106 / 117 40% 1 11.09.2026 -
João Peglow DC United Actif 104 / 124 40% 1 07.09.2026 -
Antonio Napolitano Agropecuario Argentino Actif 114 / 120 40% 1 07.09.2026 -
Mo Dauda Portimonense Actif 97 / 108 58% 1 31.08.2026 -
Victor Froholdt Porto Actif 151 / 165 40% 1 01.08.2026 -